Main page
METAR-TAF:

METAR-TAF

Airports :

Ivano-Frankivsk International Airport

Ivano-Frankivsk, Ukraine

latitude: 48-53-03N, longitude: 024-41-10E, elevation: 280 m

Current weather observation

The report was made 21 minutes ago, at 19:30 UTC
Wind 8 kt from the West, varying between West/Southwest and Northwest
Temperature 5°C
Humidity 45%
Pressure 1031 hPa
Visibility 10 km or more
no clouds below 1500 m and no cumulonimbus

METAR: UKLI 211930Z 28004MPS 250V310 CAVOK 05/M06 Q1031 R28/090070 NOSIG

Time: 21:51 (19:51 UTC)

Forecast

The report was made 2 hours and 48 minutes ago, at 17:03 UTC
Forecast valid from 21 at 18 UTC to 22 at 03 UTC
Wind 10 kt from the West
Visibility 10 km or more
Broken clouds at a height of 2000 ft
Temporary
from 21 at 18 UTC to 22 at 03 UTC
Wind 6 kt from the West/Northwest
Visibility: 2100 m
Broken clouds at a height of 1500 ft
mist

TAF: UKLI 211703Z 2118/2203 27005MPS 9999 BKN020 TX04/2118Z TN00/2203Z TEMPO 2118/2203 30003MPS 2100 BR BKN015

Weather observations and forecasts of more than 4000 airports (METAR and TAF reports).

The available stations are represented by yellow and red dots on the map.

Hover mouse over dot to see the name of the station.

Then click to see weather observations and forecasts.

To change the map : click on the green buttons with a black cross to zoom in, on the green button with a dash to zoom out, or on the green arrows for adjacent maps.


METAR-TAF: